METAR Data
IDs: Format: Raw Decoded Include TAF

Data at: 1828 UTC 16 Oct 2021

KF00 161815Z AUTO 36007G14KT 10SM CLR 20/01 A3037 RMK AO2 T02030013
KF00 161755Z AUTO 34010G17KT 10SM CLR 20/01 A3038 RMK AO2 T02000013 10206 20060
KF00 161735Z AUTO 36008KT 10SM CLR 20/03 A3038 RMK AO2 T01980028
KF00 161715Z AUTO 35007KT 10SM CLR 19/04 A3039 RMK AO2 T01950037
KF00 161655Z AUTO 02010KT 10SM CLR 19/04 A3039 RMK AO2 T01910041
KF00 161635Z AUTO 36008KT 10SM CLR 18/05 A3040 RMK AO2 T01820046
KF00 161615Z AUTO 36006KT 10SM CLR 17/06 A3040 RMK AO2 T01750062
KF00 161555Z AUTO 35008KT 10SM CLR 17/06 A3040 RMK AO2 T01690058
KF00 161535Z AUTO 02009KT 10SM CLR 16/06 A3040 RMK AO2 T01650058
KF00 161515Z AUTO 34005KT 10SM CLR 15/06 A3039 RMK AO2 T01530064
KF00 161455Z AUTO 34005KT 10SM CLR 14/07 A3039 RMK AO2 T01450069
KF00 161435Z AUTO 34005KT 10SM CLR 14/07 A3039 RMK AO2 T01350066
KF00 161415Z AUTO 36004KT 10SM CLR 12/07 A3038 RMK AO2 T01230071
KF00 161355Z AUTO 00000KT 10SM CLR 11/07 A3037 RMK AO2 T01100067
KF00 161335Z AUTO 00000KT 10SM CLR 10/07 A3036 RMK AO2 T00970068
KF00 161315Z AUTO 24003KT 10SM CLR 08/07 A3036 RMK AO2 T00780067
KF00 161255Z AUTO 22003KT 10SM CLR 07/06 A3035 RMK AO2 T00660056
KF00 161235Z AUTO 23003KT 10SM CLR 06/05 A3035 RMK AO2 T00610052
KF00 161215Z AUTO 00000KT 10SM CLR 07/05 A3034 RMK AO2 T00660053
KF00 161155Z AUTO 32003KT 10SM CLR 08/06 A3033 RMK AO2 T00830056 10118 20075
KF00 161135Z AUTO 33003KT 10SM CLR 08/06 A3032 RMK AO2 T00840057
KF00 161115Z AUTO 33004KT 10SM CLR 08/06 A3032 RMK AO2 T00810058
KF00 161055Z AUTO 33004KT 10SM CLR 08/06 A3031 RMK AO2 T00820058
KF00 161035Z AUTO 00000KT 10SM CLR 08/06 A3031 RMK AO2 T00840060
KF00 161015Z AUTO 33003KT 10SM CLR 09/06 A3031 RMK AO2 T00900058
KF00 160955Z AUTO 00000KT 10SM CLR 09/06 A3030 RMK AO2 T00950059
KF00 160935Z AUTO 33004KT 10SM CLR 10/06 A3030 RMK AO2 T00970059
KF00 160915Z AUTO 32004KT 10SM CLR 10/06 A3029 RMK AO2 T00990059
KF00 160855Z AUTO 33004KT 10SM CLR 10/06 A3029 RMK AO2 T01030060
KF00 160835Z AUTO 33004KT 10SM CLR 11/06 A3029 RMK AO2 T01060062
KF00 160815Z AUTO 34003KT 10SM CLR 11/06 A3029 RMK AO2 T01110061
KF00 160755Z AUTO 35005KT 10SM CLR 11/06 A3029 RMK AO2 T01150063
KF00 160735Z AUTO 34006KT 10SM CLR 11/07 A3029 RMK AO2 T01120066
KF00 160715Z AUTO 34005KT 10SM CLR 11/07 A3028 RMK AO2 T01130067
KF00 160655Z AUTO 34005KT 10SM CLR 11/07 A3028 RMK AO2 T01140069
KF00 160635Z AUTO 34005KT 10SM CLR 12/07 A3028 RMK AO2 T01180069
KF00 160615Z AUTO 33005KT 10SM CLR 12/07 A3028 RMK AO2 T01160070
KF00 160555Z AUTO 35004KT 10SM CLR 11/07 A3027 RMK AO2 T01140071 10182 20111 402430111
KF00 160535Z AUTO 33005KT 10SM CLR 12/07 A3027 RMK AO2 T01160070
KF00 160515Z AUTO 31004KT 10SM CLR 12/07 A3026 RMK AO2 T01200069
KF00 160455Z AUTO 31003KT 10SM CLR 12/07 A3026 RMK AO2 T01200069
KF00 160435Z AUTO 32003KT 10SM CLR 13/07 A3025 RMK AO2 T01270069
KF00 160415Z AUTO 32004KT 10SM CLR 13/07 A3025 RMK AO2 T01300066
KF00 160355Z AUTO 33005KT 10SM CLR 13/07 A3024 RMK AO2 T01290066
KF00 160335Z AUTO 32003KT 10SM CLR 13/06 A3023 RMK AO2 T01330065
KF00 160315Z AUTO 33005KT 10SM CLR 13/07 A3023 RMK AO2 T01340067
KF00 160255Z AUTO 33004KT 10SM CLR 14/06 A3022 RMK AO2 T01360064
KF00 160235Z AUTO 33004KT 10SM CLR 14/06 A3021 RMK AO2 T01400064
KF00 160215Z AUTO 34003KT 10SM CLR 15/06 A3020 RMK AO2 T01490061
KF00 160155Z AUTO 35004KT 10SM CLR 15/06 A3019 RMK AO2 T01540059
KF00 160135Z AUTO 33006KT 10SM CLR 16/06 A3018 RMK AO2 T01590059
KF00 160115Z AUTO 33007KT 10SM CLR 16/06 A3017 RMK AO2 T01630059
KF00 160055Z AUTO 34007KT 10SM CLR 17/06 A3016 RMK AO2 T01690059
KF00 160035Z AUTO 34008KT 10SM CLR 17/07 A3015 RMK AO2 T01710067
KF00 160015Z AUTO 33007KT 10SM CLR 17/07 A3014 RMK AO2 T01740073
KF00 152355Z AUTO 35008KT 10SM CLR 18/07 A3013 RMK AO2 T01830066 10230 20182
KF00 152335Z AUTO 35011G16KT 10SM CLR 19/06 A3012 RMK AO2 T01910065
KF00 152315Z AUTO 35012G17KT 10SM CLR 20/07 A3011 RMK AO2 T01980067
KF00 152255Z AUTO 34013G22KT 10SM CLR 20/07 A3011 RMK AO2 T02040065
KF00 152235Z AUTO 34012G21KT 10SM CLR 21/08 A3010 RMK AO2 T02100080
KF00 152215Z AUTO 36011G22KT 10SM CLR 21/09 A3009 RMK AO2 T02140086
KF00 152155Z AUTO 35015G21KT 10SM CLR 22/09 A3008 RMK AO2 T02170093
KF00 152135Z AUTO 35014G20KT 10SM CLR 22/09 A3007 RMK AO2 T02230095
KF00 152115Z AUTO 35017G24KT 10SM CLR 22/10 A3006 RMK AO2 T02230095
KF00 152055Z AUTO 36012G18KT 320V030 10SM CLR 22/10 A3005 RMK AO2 T02240103
KF00 152035Z AUTO 36012G22KT 10SM CLR 22/11 A3005 RMK AO2 T02240110
KF00 152015Z AUTO 35009G20KT 10SM CLR 22/12 A3004 RMK AO2 T02240122
KF00 151955Z AUTO 34013G19KT 10SM SCT032 BKN042 23/13 A3003 RMK AO2 T02250133
KF00 151935Z AUTO 32013G20KT 10SM BKN029 OVC042 22/14 A3003 RMK AO2 T02190145
KF00 151915Z AUTO 33010G16KT 290V350 10SM OVC025 21/15 A3002 RMK AO2 T02080154
KF00 151855Z AUTO 33013G18KT 10SM OVC022 21/16 A3002 RMK AO2 T02120163
KF00 151835Z AUTO 34013G17KT 10SM OVC020 21/17 A3002 RMK AO2 T02130167
KF00 151815Z AUTO 33007KT 10SM OVC016 22/17 A3001 RMK AO2 T02150174
KF00 151755Z AUTO 31012G20KT 10SM OVC018 21/18 A3001 RMK AO2 T02140177 10243 20213
KF00 151735Z AUTO 34013G18KT 310V010 10SM OVC018 22/18 A3000 RMK AO2 T02240179
KF00 151715Z AUTO 34011G19KT 10SM OVC016 22/18 A2999 RMK AO2 T02170180
KF00 151655Z AUTO 34013G18KT 10SM BKN014 OVC026 23/19 A2998 RMK AO2 T02260190
KF00 151635Z AUTO 33016G21KT 10SM BKN014 BKN022 OVC043 24/20 A2997 RMK AO2 T02360199
KF00 151615Z AUTO 30008KT 10SM BKN012 BKN019 OVC039 24/21 A2996 RMK AO2 T02410211
KF00 151555Z AUTO 28009KT 10SM OVC012 23/21 A2995 RMK AO2 T02350213
KF00 151535Z AUTO 25006KT 10SM BKN009 OVC015 23/21 A2994 RMK AO2 T02290213
KF00 151515Z AUTO 24008KT 10SM OVC009 23/21 A2994 RMK AO2 T02290213
KF00 151455Z AUTO 10SM OVC009 23/21 A2993 RMK AO2 T02270214
KF00 151435Z AUTO 22007KT 10SM OVC009 23/21 A2992 RMK AO2 T02250213
KF00 151415Z AUTO 23005KT 10SM OVC009 22/21 A2992 RMK AO2 T02220212
KF00 151355Z AUTO 24006KT 7SM OVC007 22/21 A2991 RMK AO2 T02210212
KF00 151330Z AUTO 23006KT 7SM OVC007 22/21 A2990 RMK AO2 T02200212
KF00 151315Z AUTO 24005KT 7SM OVC007 22/21 A2989 RMK AO2 T02190211
KF00 151255Z AUTO 21008KT 7SM OVC005 22/21 A2988 RMK AO2 T02170210
KF00 151235Z AUTO 22008KT 7SM OVC005 22/21 A2988 RMK AO2 T02160210
KF00 151215Z AUTO 21007KT 7SM OVC005 21/21 A2987 RMK AO2 T02150209
KF00 151155Z AUTO 22006KT 10SM OVC005 21/21 A2987 RMK AO2 T02130208 10218 20204
KF00 151135Z AUTO 20006KT 7SM OVC005 21/21 A2986 RMK AO2 T02090205
KF00 151115Z AUTO 19006KT 7SM BKN005 21/20 A2986 RMK AO2 T02060202
KF00 151055Z AUTO 19005KT 7SM CLR 21/20 A2985 RMK AO2 T02060202
KF00 151035Z AUTO 20005KT 7SM CLR 20/20 A2985 RMK AO2 T02050201
KF00 151015Z AUTO 18006KT 10SM SCT005 21/20 A2985 RMK AO2 T02060202
KF00 150955Z AUTO 22004KT 7SM SCT005 21/20 A2985 RMK AO2 T02050201
KF00 150935Z AUTO 20005KT 7SM CLR 20/20 A2984 RMK AO2 T02040201
KF00 150915Z AUTO 18005KT 7SM CLR 20/20 A2984 RMK AO2 T02050200
KF00 150855Z AUTO 19004KT 7SM CLR 21/20 A2984 RMK AO2 T02060202
KF00 150835Z AUTO 17005KT 10SM CLR 21/20 A2983 RMK AO2 T02070202
KF00 150815Z AUTO 16005KT 10SM CLR 21/20 A2984 RMK AO2 T02100203
KF00 150755Z AUTO 18006KT 10SM CLR 21/21 A2984 RMK AO2 T02120206
KF00 150735Z AUTO 18005KT 10SM CLR 20/20 A2985 RMK AO2 T02050200
KF00 150715Z AUTO 22003KT 10SM CLR 21/20 A2985 RMK AO2 T02070202
KF00 150655Z AUTO 23003KT 10SM CLR 21/20 A2984 RMK AO2 T02120203
KF00 150635Z AUTO 17004KT 10SM CLR 22/21 A2984 RMK AO2 T02170206